createdAt,value
2023-05-16T00:05:46.208Z,12.80
2023-05-16T00:15:45.954Z,9.10
2023-05-16T00:25:46.038Z,8.20
2023-05-16T00:35:45.862Z,7.60
2023-05-16T00:45:45.774Z,7.20
2023-05-16T00:55:45.714Z,6.70
2023-05-16T01:05:45.668Z,6.70
2023-05-16T01:15:47.314Z,6.40
2023-05-16T01:25:45.541Z,5.80
2023-05-16T01:35:45.392Z,4.40
2023-05-16T01:45:45.277Z,5.60
2023-05-16T01:55:45.181Z,4.70
2023-05-16T02:05:45.097Z,4.40
2023-05-16T02:15:45.161Z,4.20
2023-05-16T02:25:44.895Z,6.40
2023-05-16T02:35:45.087Z,5.50
2023-05-16T02:45:44.608Z,4.30
2023-05-16T02:55:44.720Z,5.30
2023-05-16T03:05:44.182Z,4.90
2023-05-16T03:15:43.952Z,4.50
2023-05-16T03:25:43.769Z,7.60
2023-05-16T03:35:43.505Z,9.40
2023-05-16T03:45:43.083Z,9.30
2023-05-16T03:55:42.729Z,8.70
2023-05-16T04:05:42.608Z,8.10
2023-05-16T04:15:42.360Z,9.10
2023-05-16T04:25:41.830Z,9.20
2023-05-16T04:35:41.505Z,10.30
2023-05-16T04:45:41.202Z,9.10
2023-05-16T04:55:40.955Z,10.20
2023-05-16T05:05:40.573Z,8.50
2023-05-16T05:15:40.367Z,9.00
2023-05-16T05:25:39.825Z,9.60
2023-05-16T05:35:39.624Z,7.70
2023-05-16T05:45:39.102Z,9.90
2023-05-16T05:55:40.466Z,7.80
2023-05-16T06:05:38.574Z,6.90
2023-05-16T06:15:37.980Z,7.30
2023-05-16T06:25:38.061Z,8.90
2023-05-16T06:35:37.270Z,8.20
2023-05-16T06:45:36.903Z,7.60
2023-05-16T06:55:36.510Z,9.60
2023-05-16T07:05:36.127Z,7.00
2023-05-16T07:15:36.362Z,9.00
2023-05-16T07:25:35.597Z,7.20
2023-05-16T07:35:35.268Z,6.40
2023-05-16T07:45:35.009Z,6.60
2023-05-16T07:55:36.833Z,8.20
2023-05-16T08:05:34.335Z,4.60
2023-05-16T08:15:33.967Z,5.70
2023-05-16T08:25:34.037Z,5.60
2023-05-16T08:35:33.450Z,4.40
2023-05-16T08:45:33.245Z,5.70
2023-05-16T08:55:33.055Z,4.00
2023-05-16T09:05:32.946Z,6.10
2023-05-16T09:15:32.799Z,5.60
2023-05-16T09:25:32.816Z,6.40
2023-05-16T09:35:44.581Z,5.30
2023-05-16T09:45:32.424Z,5.30
2023-05-16T09:55:32.195Z,4.80
2023-05-16T10:05:32.265Z,4.20
2023-05-16T10:15:32.111Z,3.80
2023-05-16T10:25:32.388Z,4.60
2023-05-16T10:35:31.956Z,3.30
2023-05-16T10:45:37.018Z,3.60
2023-05-16T10:55:39.319Z,2.40
2023-05-16T11:05:36.622Z,3.90
2023-05-16T11:15:36.182Z,5.30
2023-05-16T11:25:35.792Z,5.50
2023-05-16T11:35:35.300Z,4.50
2023-05-16T11:45:34.856Z,5.70
2023-05-16T11:55:41.649Z,4.00
2023-05-16T12:05:36.061Z,3.80
2023-05-16T12:15:33.563Z,3.30
2023-05-16T12:25:33.223Z,4.20
2023-05-16T12:35:38.443Z,5.00
2023-05-16T12:45:37.866Z,4.40
2023-05-16T12:55:37.428Z,5.40
2023-05-16T13:05:37.118Z,3.70
2023-05-16T13:15:36.535Z,3.50
2023-05-16T13:25:36.385Z,4.00
2023-05-16T13:35:37.866Z,3.10
2023-05-16T13:45:35.521Z,3.60
2023-05-16T13:55:40.292Z,4.60
2023-05-16T14:05:39.868Z,4.20
2023-05-16T14:15:39.405Z,2.70
2023-05-16T14:25:38.977Z,3.00
2023-05-16T14:35:38.893Z,3.00
2023-05-16T14:45:38.293Z,3.60
2023-05-16T14:55:37.658Z,3.00
2023-05-16T15:05:42.892Z,3.60
2023-05-16T15:15:49.197Z,4.10
2023-05-16T15:25:41.997Z,4.80
2023-05-16T15:35:41.460Z,5.70
2023-05-16T15:45:41.167Z,2.60
2023-05-16T15:55:40.529Z,3.20
2023-05-16T16:05:40.090Z,3.40
2023-05-16T16:15:39.785Z,3.90
2023-05-16T16:25:45.215Z,5.40
2023-05-16T16:35:44.395Z,4.40
2023-05-16T16:45:43.956Z,4.50
2023-05-16T16:55:43.655Z,5.60
2023-05-16T17:05:43.293Z,5.80
2023-05-16T17:15:42.623Z,6.90
2023-05-16T17:25:42.203Z,7.60
2023-05-16T17:35:41.741Z,7.50
2023-05-16T17:45:41.295Z,5.30
2023-05-16T17:55:40.939Z,5.50
2023-05-16T18:05:41.141Z,4.70
2023-05-16T18:15:41.097Z,6.00
2023-05-16T18:25:46.019Z,3.80
2023-05-16T18:35:45.562Z,5.80
2023-05-16T18:45:45.130Z,4.50
2023-05-16T18:55:44.860Z,7.20
2023-05-16T19:05:44.388Z,6.10
2023-05-16T19:15:43.839Z,5.80
2023-05-16T19:25:43.391Z,4.30
2023-05-16T19:35:42.969Z,5.70
2023-05-16T19:45:42.607Z,5.80
2023-05-16T19:55:42.107Z,4.60
2023-05-16T20:05:41.628Z,4.30
2023-05-16T20:15:41.355Z,4.80
2023-05-16T20:25:41.073Z,5.30
2023-05-16T20:35:41.084Z,6.60
2023-05-16T20:45:41.046Z,6.30
2023-05-16T20:55:41.102Z,6.30
2023-05-16T21:05:41.409Z,5.30
2023-05-16T21:15:41.292Z,6.20
2023-05-16T21:25:41.242Z,6.10
2023-05-16T21:35:41.236Z,9.20
2023-05-16T21:45:41.201Z,7.40
2023-05-16T21:55:41.102Z,5.50
2023-05-16T22:05:41.058Z,4.30
2023-05-16T22:15:44.490Z,5.50
2023-05-16T22:25:41.016Z,7.00
2023-05-16T22:35:41.180Z,5.40
2023-05-16T22:45:40.857Z,7.20
2023-05-16T22:55:40.738Z,5.00
2023-05-16T23:05:40.731Z,5.80
2023-05-16T23:15:40.632Z,6.50
2023-05-16T23:25:40.289Z,6.20
2023-05-16T23:35:40.277Z,7.40
2023-05-16T23:45:39.923Z,8.90
2023-05-16T23:55:39.753Z,5.30
